Aérodrome :
LOGIN :

S'inscrire | Disclaimer

   EN    FR    IT 

 










Légende :    VFR   VFR Marginal   IFR   IFR Intensif   IFR Très Intensif
Visi : 
Plafond : 
>= 8 km
>= 3000ft
5 à 8 km
1000 à 3000 ft
1500m à 5 km
500 à 1000 ft
800 à 1500m
200 à 500 ft
< 800m
< 200 ft
Symboles :   Orages  Brouillard  Fortes neiges  Fortes précipitations  Vent > 20 kt
SIGMETs :   Divers  Orages  Givrage  Turbulence  Onde Orograph.  Cendres Volcan.






- Altitude de l'aérodrome : 21 ft
- Code IATA : VST


ESOW - Stockholm Västerås

DERNIER METAR :
  • 271220Z 02014KT 9999 BKN006 14/12 Q1015

METARs EXPIRÉS :
  • 271150Z 01014KT 9999 BKN006 13/12 Q1015
  • 271120Z 01016KT 9999 OVC005 13/12 Q1015
  • 271050Z 02014KT 9999 OVC004 13/12 Q1015
  • 271020Z 03014KT 9000 OVC004 13/12 Q1015
  • 270950Z 03012KT 9999 OVC004 13/11 Q1015

TAF TAF ESOW
Valide du 27 à 09h jusqu'au 27 à 13h UTC


270830Z 2709/2713 02012KT 6000 OVC003
TEMPO 2709/2711 3000 BR
BECMG 2709/2711 BKN007
BECMG 2711/2713 SCT009



MET'MAP, la Météo Aéronautique d'un coup d'oeil ! - Copyright ORBIFLY Décembre 2007 - Disclaimer

ORBIFLY MET'MAP TEAM :

Programmation & Développement : Alexandra Zaïnal
Sur une idée originale de : Baudouin d'Aumeries
Assistance à la programmation : Marc-Olivier Méhu
Soutien technique & logistique : Manuel Goepfert

Contact : metmap@orbifly.com




SOURCES & CREDITS :

   NOAA